Time;durP1;ratioP1;P1;durP2;ratioP2;P2;SDS_P1;SDS_P2;PMS_P1;PMS_P2;Temp;Humidity;BMP_temperature;BMP_pressure;BME280_temperature;BME280_humidity;BME280_pressure;Samples;Min_cycle;Max_cycle;Signal;HPM_P1;HPM_P2
2023/03/06 00:00:15;;;;;;;2.10;1.70;;;20.40;33.10;;;;;;6144704;29;20044;-47
2023/03/06 00:03:18;;;;;;;1.92;1.73;;;20.40;33.00;;;;;;6144882;29;20047;-44
2023/03/06 00:06:20;;;;;;;1.77;1.67;;;20.30;32.80;;;;;;6142623;29;20040;-47
2023/03/06 00:09:21;;;;;;;2.03;1.83;;;20.50;32.90;;;;;;6124508;29;20044;-47
2023/03/06 00:12:23;;;;;;;1.70;1.60;;;20.50;32.80;;;;;;6141102;29;20393;-47
2023/03/06 00:15:25;;;;;;;2.22;1.77;;;20.50;32.80;;;;;;6143593;29;20052;-49
2023/03/06 00:18:27;;;;;;;1.70;1.60;;;20.40;33.20;;;;;;6146044;29;20048;-48
2023/03/06 00:21:29;;;;;;;1.92;1.73;;;20.10;32.40;;;;;;6144147;29;20048;-46
2023/03/06 00:24:30;;;;;;;1.80;1.52;;;20.50;32.60;;;;;;6145328;29;20040;-46
2023/03/06 00:27:32;;;;;;;1.90;1.60;;;20.40;32.50;;;;;;6146177;29;20040;-49
2023/03/06 00:30:35;;;;;;;2.20;2.00;;;20.40;32.40;;;;;;6144824;29;20048;-48
2023/03/06 00:33:37;;;;;;;1.88;1.60;;;20.30;32.30;;;;;;6143263;29;20048;-49
2023/03/06 00:36:38;;;;;;;1.83;1.50;;;20.30;32.30;;;;;;6143703;29;20054;-50
2023/03/06 00:39:41;;;;;;;2.00;1.80;;;20.50;32.40;;;;;;6147888;29;20093;-48
2023/03/06 00:42:42;;;;;;;;;;;20.20;32.20;;;;;;6146972;29;20054;-49
2023/03/06 00:45:44;;;;;;;1.83;1.67;;;20.10;32.30;;;;;;6143542;28;19929;-45
2023/03/06 00:48:46;;;;;;;1.90;1.70;;;20.40;32.30;;;;;;6148166;29;20103;-51
2023/03/06 00:51:47;;;;;;;2.22;2.03;;;20.30;32.30;;;;;;6145468;29;20072;-47
2023/03/06 00:54:49;;;;;;;;;;;20.10;32.20;;;;;;6142814;29;20052;-49
2023/03/06 00:57:50;;;;;;;1.65;1.55;;;19.90;32.20;;;;;;6141696;28;19946;-49
2023/03/06 01:00:53;;;;;;;;;;;20.40;32.30;;;;;;6143091;29;20039;-49
2023/03/06 01:03:55;;;;;;;2.00;1.58;;;20.30;32.00;;;;;;6141452;29;19923;-50
2023/03/06 01:06:56;;;;;;;2.10;1.90;;;20.30;32.30;;;;;;6144543;29;20488;-51
2023/03/06 01:10:00;;;;;;;;;;;20.30;32.30;;;;;;6141319;29;20063;-46
2023/03/06 01:13:01;;;;;;;1.98;1.77;;;20.50;32.50;;;;;;6141435;29;19929;-48
2023/03/06 01:16:05;;;;;;;;;;;20.30;32.30;;;;;;6141706;29;20052;-45
2023/03/06 01:19:07;;;;;;;1.70;1.60;;;20.30;32.40;;;;;;6138020;29;19933;-46
2023/03/06 01:22:09;;;;;;;1.90;1.65;;;20.30;32.30;;;;;;6141114;29;20040;-49
2023/03/06 01:25:12;;;;;;;1.60;1.50;;;20.20;32.30;;;;;;6143454;28;20048;-47
2023/03/06 01:28:13;;;;;;;1.95;1.70;;;20.30;32.30;;;;;;6143204;29;20047;-50
2023/03/06 01:31:18;;;;;;;2.00;1.80;;;20.30;32.30;;;;;;6143138;29;20116;-49
2023/03/06 01:34:20;;;;;;;1.60;1.38;;;20.40;32.30;;;;;;6143871;29;20051;-48
2023/03/06 01:37:21;;;;;;;2.20;1.83;;;20.30;32.30;;;;;;6143568;29;20047;-50
2023/03/06 01:40:22;;;;;;;2.25;1.67;;;20.00;32.10;;;;;;6143520;29;20054;-47
2023/03/06 01:43:28;;;;;;;2.22;1.88;;;20.50;32.30;;;;;;6143764;29;20059;-49
2023/03/06 01:46:37;;;;;;;2.13;1.92;;;20.10;32.10;;;;;;6142842;29;20040;-46
2023/03/06 01:49:41;;;;;;;2.08;1.90;;;20.10;32.00;;;;;;6142008;29;20056;-48
2023/03/06 01:52:46;;;;;;;1.90;1.73;;;20.40;32.20;;;;;;6144044;29;20414;-47
2023/03/06 01:55:48;;;;;;;2.20;2.00;;;20.20;32.00;;;;;;6144530;29;20072;-46
2023/03/06 01:58:51;;;;;;;2.03;1.83;;;20.10;31.90;;;;;;6144008;29;20122;-51
2023/03/06 02:01:53;;;;;;;1.77;1.67;;;20.40;32.00;;;;;;6146031;29;20064;-50
2023/03/06 02:04:58;;;;;;;2.08;1.77;;;20.10;31.80;;;;;;6142326;29;20058;-50
2023/03/06 02:08:01;;;;;;;1.83;1.60;;;20.00;31.70;;;;;;6141023;29;20040;-51
2023/03/06 02:11:11;;;;;;;2.05;1.77;;;20.40;31.80;;;;;;6140683;29;20044;-47
2023/03/06 02:14:15;;;;;;;2.17;1.88;;;20.40;31.80;;;;;;6141998;29;20075;-50
2023/03/06 02:17:20;;;;;;;1.77;1.60;;;20.20;31.70;;;;;;6126372;29;20055;-51
2023/03/06 02:20:30;;;;;;;2.17;1.80;;;20.30;31.70;;;;;;6126909;29;20056;-51
2023/03/06 02:23:46;;;;;;;2.58;1.85;;;20.10;31.20;;;;;;6128624;29;20043;-49
2023/03/06 02:26:49;;;;;;;2.08;1.90;;;20.20;31.50;;;;;;6142887;29;20039;-51
2023/03/06 02:29:51;;;;;;;2.40;2.20;;;20.10;31.50;;;;;;6140760;29;20111;-49
2023/03/06 02:32:52;;;;;;;;;;;20.10;31.50;;;;;;6143768;29;20047;-48
2023/03/06 02:35:56;;;;;;;1.77;1.58;;;20.00;31.60;;;;;;6144635;29;19929;-47
2023/03/06 02:38:58;;;;;;;2.17;1.98;;;20.30;31.60;;;;;;6142810;29;20059;-49
2023/03/06 02:42:01;;;;;;;2.15;1.95;;;20.30;32.30;;;;;;6144569;29;20058;-50
2023/03/06 02:45:08;;;;;;;2.58;2.20;;;20.30;31.80;;;;;;6144798;29;20064;-50
2023/03/06 02:48:11;;;;;;;2.40;1.95;;;20.30;31.80;;;;;;6142886;29;20044;-47
2023/03/06 02:51:13;;;;;;;2.15;1.95;;;20.00;31.70;;;;;;6141300;29;20043;-50
2023/03/06 02:54:17;;;;;;;2.30;2.10;;;20.10;31.80;;;;;;6141723;29;20044;-49
2023/03/06 02:57:19;;;;;;;2.45;2.25;;;20.30;32.00;;;;;;6142830;29;20051;-48
2023/03/06 03:00:21;;;;;;;2.88;2.20;;;20.30;32.10;;;;;;6143742;29;20036;-46
2023/03/06 03:03:22;;;;;;;2.70;2.22;;;20.00;32.00;;;;;;6146391;29;20043;-48
2023/03/06 03:06:28;;;;;;;2.20;2.00;;;20.30;32.20;;;;;;6146166;29;20044;-44
2023/03/06 03:09:35;;;;;;;2.30;2.10;;;20.30;32.30;;;;;;6146213;29;20044;-48
2023/03/06 03:12:37;;;;;;;2.25;1.98;;;20.30;32.40;;;;;;6145960;29;20043;-49
2023/03/06 03:15:40;;;;;;;2.50;2.20;;;20.20;32.40;;;;;;6145910;29;20048;-46
2023/03/06 03:18:43;;;;;;;2.30;2.10;;;20.10;32.40;;;;;;6145069;29;20052;-47
2023/03/06 03:21:46;;;;;;;2.45;2.10;;;20.30;32.50;;;;;;6144222;29;20055;-49
2023/03/06 03:24:47;;;;;;;1.95;1.80;;;20.20;32.60;;;;;;6145098;29;20052;-45
2023/03/06 03:27:49;;;;;;;;;;;20.40;32.80;;;;;;6144788;29;20047;-47
2023/03/06 03:30:51;;;;;;;2.35;2.15;;;20.30;32.90;;;;;;6144969;29;19929;-50
2023/03/06 03:33:52;;;;;;;2.40;2.00;;;20.00;33.20;;;;;;6145673;29;20048;-49
2023/03/06 03:36:56;;;;;;;2.20;2.00;;;20.20;32.70;;;;;;6145940;29;20453;-44
2023/03/06 03:39:58;;;;;;;2.38;2.13;;;20.20;32.80;;;;;;6145383;29;20052;-49
2023/03/06 03:43:01;;;;;;;2.15;1.83;;;20.30;32.80;;;;;;6145107;29;20047;-47
2023/03/06 03:46:04;;;;;;;2.28;2.00;;;20.30;32.90;;;;;;6145436;29;20050;-50
2023/03/06 03:49:06;;;;;;;2.17;1.70;;;20.00;32.70;;;;;;6145891;29;20067;-50
2023/03/06 03:52:08;;;;;;;2.20;2.00;;;20.20;32.80;;;;;;6145430;29;20056;-48
2023/03/06 03:55:11;;;;;;;2.30;1.83;;;20.20;32.70;;;;;;6145084;29;20048;-47
2023/03/06 03:58:17;;;;;;;2.10;1.90;;;19.90;32.50;;;;;;6145040;29;20420;-48
2023/03/06 04:01:19;;;;;;;2.50;1.90;;;20.30;32.70;;;;;;6144423;29;20082;-44
2023/03/06 04:04:20;;;;;;;;;;;20.30;32.70;;;;;;6145002;29;20040;-49
2023/03/06 04:07:22;;;;;;;1.98;1.70;;;19.80;32.50;;;;;;6144860;29;19930;-49
2023/03/06 04:10:24;;;;;;;2.20;1.75;;;20.10;32.50;;;;;;6144964;29;20091;-50
2023/03/06 04:13:26;;;;;;;2.05;1.85;;;20.00;32.40;;;;;;6143437;29;20067;-47
2023/03/06 04:16:27;;;;;;;2.50;1.98;;;19.90;32.40;;;;;;6144333;29;20453;-48
2023/03/06 04:19:29;;;;;;;1.98;1.88;;;20.00;32.30;;;;;;6136778;29;20075;-53
2023/03/06 04:22:32;;;;;;;3.70;1.45;;;19.80;33.10;;;;;;6129003;29;20047;-50
2023/03/06 04:25:34;;;;;;;2.17;1.88;;;20.20;33.70;;;;;;6128864;29;20067;-52
2023/03/06 04:28:38;;;;;;;2.03;1.58;;;20.10;33.50;;;;;;6127495;29;20043;-50
2023/03/06 04:31:40;;;;;;;2.50;1.80;;;19.90;33.40;;;;;;6128630;29;20508;-53
2023/03/06 04:34:41;;;;;;;1.92;1.55;;;19.90;33.20;;;;;;6128419;29;20462;-54
2023/03/06 04:37:43;;;;;;;;;;;20.30;33.60;;;;;;6128522;29;20051;-55
2023/03/06 04:40:44;;;;;;;2.03;1.77;;;20.30;33.60;;;;;;6128604;29;19922;-54
2023/03/06 04:43:49;;;;;;;1.63;1.50;;;20.20;33.10;;;;;;6128838;29;20048;-54
2023/03/06 04:46:53;;;;;;;2.08;1.88;;;20.20;32.90;;;;;;6128318;29;20099;-54
2023/03/06 04:49:55;;;;;;;2.50;1.75;;;20.00;32.80;;;;;;6128239;29;20136;-55
2023/03/06 04:52:56;;;;;;;1.92;1.48;;;20.20;33.00;;;;;;6128348;29;20503;-55
2023/03/06 04:55:58;;;;;;;1.52;1.38;;;19.90;32.70;;;;;;6127774;29;20059;-53
2023/03/06 04:59:01;;;;;;;;;;;20.00;32.70;;;;;;6128377;29;20071;-54
2023/03/06 05:02:02;;;;;;;1.92;1.73;;;19.90;32.90;;;;;;6128141;28;20279;-55
2023/03/06 05:05:07;;;;;;;2.10;1.90;;;19.90;32.60;;;;;;6128133;29;20070;-55
2023/03/06 05:08:14;;;;;;;1.67;1.58;;;19.90;32.40;;;;;;6127900;29;20043;-55
2023/03/06 05:11:18;;;;;;;2.05;1.77;;;20.00;32.40;;;;;;6127826;29;20393;-56
2023/03/06 05:14:22;;;;;;;1.60;1.50;;;19.90;31.60;;;;;;6127373;29;20135;-55
2023/03/06 05:17:23;;;;;;;1.83;1.70;;;20.00;32.40;;;;;;6128016;29;20044;-55
2023/03/06 05:20:27;;;;;;;1.77;1.45;;;20.00;32.30;;;;;;6127396;29;20056;-55
2023/03/06 05:23:33;;;;;;;2.10;1.85;;;20.00;32.40;;;;;;6127097;29;20386;-55
2023/03/06 05:26:34;;;;;;;1.75;1.58;;;20.30;32.40;;;;;;6127494;29;20071;-55
2023/03/06 05:29:36;;;;;;;2.00;1.65;;;20.00;32.30;;;;;;6127284;29;20075;-55
2023/03/06 05:32:38;;;;;;;1.98;1.75;;;20.20;32.40;;;;;;6127091;29;20044;-56
2023/03/06 05:35:43;;;;;;;;;;;20.20;32.40;;;;;;6127894;29;20048;-55
2023/03/06 05:38:46;;;;;;;2.08;1.67;;;20.10;32.50;;;;;;6127739;29;19945;-55
2023/03/06 05:41:50;;;;;;;1.60;1.50;;;20.20;32.40;;;;;;6126985;29;20052;-55
2023/03/06 05:44:54;;;;;;;1.73;1.60;;;19.80;31.00;;;;;;6126916;29;20044;-55
2023/03/06 05:47:55;;;;;;;2.22;2.03;;;19.90;32.30;;;;;;6126924;29;20043;-55
2023/03/06 05:50:57;;;;;;;2.15;1.67;;;20.10;32.30;;;;;;6126925;29;20051;-55
2023/03/06 05:53:59;;;;;;;1.85;1.70;;;20.30;32.20;;;;;;6127013;29;20504;-55
2023/03/06 05:57:00;;;;;;;;;;;20.20;32.30;;;;;;6127704;29;20051;-55
2023/03/06 06:00:03;;;;;;;1.92;1.75;;;19.80;32.50;;;;;;6126602;29;20014;-56
2023/03/06 06:03:13;;;;;;;2.03;1.63;;;19.80;32.10;;;;;;6127483;29;20206;-55
2023/03/06 06:06:15;;;;;;;2.10;1.90;;;20.10;32.20;;;;;;6126768;29;20051;-55
2023/03/06 06:09:16;;;;;;;1.90;1.50;;;19.80;32.10;;;;;;6126359;29;20047;-56
2023/03/06 06:12:18;;;;;;;1.88;1.55;;;19.90;32.20;;;;;;6126733;29;20036;-55
2023/03/06 06:15:22;;;;;;;2.00;1.83;;;20.00;32.20;;;;;;6126812;29;20472;-54
2023/03/06 06:18:23;;;;;;;1.90;1.60;;;20.20;32.30;;;;;;6127187;29;20488;-55
2023/03/06 06:21:24;;;;;;;;;;;19.80;32.10;;;;;;6126712;29;20139;-56
2023/03/06 06:24:26;;;;;;;1.70;1.35;;;20.20;32.60;;;;;;6126758;29;20025;-55
2023/03/06 06:27:27;;;;;;;;;;;20.00;32.30;;;;;;6126926;29;20048;-55
2023/03/06 06:30:29;;;;;;;1.70;1.55;;;19.80;32.50;;;;;;6126058;29;19922;-55
2023/03/06 06:33:31;;;;;;;1.60;1.50;;;19.80;32.20;;;;;;6126575;29;20044;-56
2023/03/06 06:36:32;;;;;;;1.90;1.80;;;19.90;32.30;;;;;;6129531;29;20075;-54
2023/03/06 06:39:34;;;;;;;2.25;1.80;;;19.90;32.20;;;;;;6129066;29;20071;-54
2023/03/06 06:42:35;;;;;;;1.95;1.75;;;19.80;32.20;;;;;;6130503;29;20400;-56
2023/03/06 06:45:43;;;;;;;1.88;1.52;;;20.00;32.40;;;;;;6130434;29;20039;-55
2023/03/06 06:48:47;;;;;;;1.70;1.60;;;19.80;32.30;;;;;;6130713;29;20066;-56
2023/03/06 06:51:48;;;;;;;1.90;1.70;;;20.00;32.50;;;;;;6130604;29;20067;-56
2023/03/06 06:54:50;;;;;;;1.73;1.50;;;20.30;32.50;;;;;;6130484;29;20067;-57
2023/03/06 06:57:52;;;;;;;1.80;1.70;;;20.20;32.30;;;;;;6128880;29;20048;-56
2023/03/06 07:00:54;;;;;;;1.50;1.40;;;20.10;32.30;;;;;;6130589;29;20504;-56
2023/03/06 07:03:56;;;;;;;1.92;1.70;;;19.90;32.10;;;;;;6129604;29;20043;-56
2023/03/06 07:06:58;;;;;;;1.60;1.38;;;19.90;32.00;;;;;;6129929;29;20055;-56
2023/03/06 07:09:59;;;;;;;2.65;1.42;;;20.20;32.10;;;;;;6129242;29;20051;-55
2023/03/06 07:13:01;;;;;;;1.52;1.27;;;20.10;31.80;;;;;;6129684;29;20139;-56
2023/03/06 07:16:04;;;;;;;1.63;1.35;;;20.20;31.90;;;;;;6128614;29;20036;-56
2023/03/06 07:19:06;;;;;;;1.55;1.35;;;20.00;31.50;;;;;;6129817;29;20043;-55
2023/03/06 07:22:07;;;;;;;1.23;1.10;;;20.30;31.60;;;;;;6128947;29;20058;-57
2023/03/06 07:25:12;;;;;;;1.20;1.10;;;20.10;31.40;;;;;;6129629;29;20051;-55
2023/03/06 07:28:14;;;;;;;1.67;1.35;;;20.00;31.20;;;;;;6129061;29;20052;-57
2023/03/06 07:31:25;;;;;;;1.55;1.42;;;20.40;31.20;;;;;;6127859;29;20055;-56
2023/03/06 07:34:26;;;;;;;1.50;1.38;;;20.40;31.10;;;;;;6127694;29;20047;-56
2023/03/06 07:37:28;;;;;;;1.50;1.40;;;20.10;31.50;;;;;;6128890;29;20047;-56
2023/03/06 07:40:32;;;;;;;1.50;1.40;;;20.50;31.10;;;;;;6127238;29;20070;-55
2023/03/06 07:43:34;;;;;;;;;;;20.40;30.90;;;;;;6130127;29;20054;-56
2023/03/06 07:46:38;;;;;;;1.50;1.40;;;20.70;31.30;;;;;;6127530;29;19934;-55
2023/03/06 07:49:39;;;;;;;1.48;1.35;;;20.10;30.70;;;;;;6128412;29;20051;-55
2023/03/06 07:57:34;;;;;;;1.20;1.10;;;20.50;30.30;;;;;;6129831;29;20039;-54
2023/03/06 08:00:35;;;;;;;;;;;20.60;30.90;;;;;;6128896;29;20047;-54
2023/03/06 08:03:41;;;;;;;1.38;1.27;;;20.80;31.30;;;;;;6128246;29;19983;-54
2023/03/06 08:06:42;;;;;;;1.25;1.10;;;20.30;30.70;;;;;;6127819;29;20416;-55
2023/03/06 08:09:44;;;;;;;1.02;0.90;;;20.60;30.90;;;;;;6127911;29;20058;-52
2023/03/06 08:12:45;;;;;;;2.92;1.02;;;20.50;30.90;;;;;;6127567;29;20082;-49
2023/03/06 08:15:48;;;;;;;2.35;1.08;;;20.40;30.50;;;;;;6127894;29;20047;-50
2023/03/06 08:18:52;;;;;;;0.90;0.80;;;20.60;30.50;;;;;;6127946;29;20044;-52
2023/03/06 08:21:54;;;;;;;1.33;1.15;;;20.40;30.40;;;;;;6127540;29;20048;-52
2023/03/06 08:24:57;;;;;;;1.63;1.13;;;20.50;30.40;;;;;;6127660;29;20052;-51
2023/03/06 08:27:58;;;;;;;0.90;0.80;;;20.70;30.40;;;;;;6127393;29;20040;-53
2023/03/06 08:31:09;;;;;;;0.90;0.90;;;20.80;30.50;;;;;;6127575;29;20055;-53
2023/03/06 08:34:14;;;;;;;1.40;0.82;;;20.60;30.40;;;;;;6127580;29;20044;-52
2023/03/06 08:37:15;;;;;;;1.42;1.05;;;20.60;30.40;;;;;;6126889;29;20440;-55
2023/03/06 08:40:17;;;;;;;1.20;1.00;;;20.80;30.50;;;;;;6128059;29;20500;-54
2023/03/06 08:43:22;;;;;;;1.40;1.00;;;20.80;30.50;;;;;;6127246;29;20047;-52
2023/03/06 08:46:26;;;;;;;1.15;0.90;;;20.50;30.30;;;;;;6127407;29;20064;-52
2023/03/06 08:49:31;;;;;;;1.27;1.17;;;20.80;30.40;;;;;;6110353;29;20086;-51
2023/03/06 08:52:34;;;;;;;1.20;1.08;;;20.70;30.10;;;;;;6127554;29;20050;-55
2023/03/06 08:55:36;;;;;;;5.85;1.23;;;20.70;30.30;;;;;;6128887;29;20448;-52
2023/03/06 08:58:37;;;;;;;3.33;1.20;;;21.00;30.50;;;;;;6129820;29;20400;-51
2023/03/06 09:01:39;;;;;;;;;;;20.60;30.40;;;;;;6127556;29;20135;-50
2023/03/06 09:04:41;;;;;;;1.23;0.82;;;21.00;30.70;;;;;;6127726;28;19923;-50
2023/03/06 09:07:42;;;;;;;1.75;0.73;;;21.00;30.50;;;;;;6127215;29;20500;-53
2023/03/06 09:10:45;;;;;;;;;;;21.20;30.60;;;;;;6127138;29;20560;-55
2023/03/06 09:13:47;;;;;;;1.38;1.10;;;20.90;30.40;;;;;;6127069;29;19966;-54
2023/03/06 09:16:48;;;;;;;1.40;1.10;;;20.90;30.40;;;;;;6126815;29;20054;-52
2023/03/06 09:19:51;;;;;;;1.25;1.05;;;20.80;30.30;;;;;;6127421;29;20079;-54
2023/03/06 09:22:55;;;;;;;1.25;1.13;;;21.10;30.40;;;;;;6127922;29;20114;-51
2023/03/06 09:25:58;;;;;;;1.27;0.95;;;21.00;30.40;;;;;;6126581;29;20071;-53
2023/03/06 09:29:03;;;;;;;1.48;1.00;;;21.00;30.40;;;;;;6125611;29;20043;-55
2023/03/06 09:32:05;;;;;;;1.20;1.10;;;21.20;30.60;;;;;;6127165;29;20039;-53
2023/03/06 09:35:09;;;;;;;2.50;0.90;;;21.10;30.60;;;;;;6126442;29;20505;-53
2023/03/06 09:38:11;;;;;;;2.15;1.20;;;20.90;30.60;;;;;;6126500;29;20493;-55
2023/03/06 09:41:19;;;;;;;;;;;21.10;30.80;;;;;;6126806;29;20051;-53
2023/03/06 09:44:25;;;;;;;1.48;1.10;;;21.00;30.80;;;;;;6126755;29;19930;-53
2023/03/06 09:47:41;;;;;;;1.15;1.05;;;20.90;30.80;;;;;;6109695;29;20052;-55
2023/03/06 09:50:48;;;;;;;1.48;0.95;;;21.20;31.10;;;;;;6126090;29;20051;-52
2023/03/06 09:53:58;;;;;;;1.23;1.05;;;20.90;31.00;;;;;;6126060;29;20047;-53
2023/03/06 09:57:01;;;;;;;1.13;0.90;;;20.90;31.10;;;;;;6124683;29;20055;-54
2023/03/06 10:00:06;;;;;;;1.50;0.95;;;20.90;31.10;;;;;;6124670;29;20043;-52
2023/03/06 10:03:20;;;;;;;1.10;0.90;;;20.90;31.20;;;;;;6126109;29;20405;-58
2023/03/06 10:06:28;;;;;;;1.52;1.08;;;21.20;31.30;;;;;;6125331;29;20040;-58
2023/03/06 10:09:39;;;;;;;1.30;1.20;;;20.90;31.20;;;;;;6127240;29;20123;-57
2023/03/06 10:12:47;;;;;;;1.77;1.45;;;21.20;31.40;;;;;;6128578;29;20098;-60
2023/03/06 10:15:53;;;;;;;2.03;1.55;;;21.10;31.40;;;;;;6126643;29;20051;-52
2023/03/06 10:18:59;;;;;;;1.88;1.67;;;21.10;31.40;;;;;;6125819;29;20070;-55
2023/03/06 10:22:09;;;;;;;1.67;1.25;;;21.20;31.50;;;;;;6125859;29;20416;-53
2023/03/06 10:25:20;;;;;;;1.30;1.15;;;21.00;31.40;;;;;;6126083;29;20052;-53
2023/03/06 10:28:27;;;;;;;1.55;1.40;;;21.20;31.50;;;;;;6126417;29;20055;-49
2023/03/06 10:31:31;;;;;;;1.33;1.10;;;21.30;31.60;;;;;;6125641;29;20095;-53
2023/03/06 10:34:38;;;;;;;1.60;1.30;;;21.20;31.50;;;;;;6126199;29;20047;-53
2023/03/06 10:37:40;;;;;;;1.40;1.00;;;21.10;31.50;;;;;;6126403;29;20048;-54
2023/03/06 10:40:48;;;;;;;1.10;1.00;;;21.30;31.60;;;;;;6124863;29;20039;-54
2023/03/06 10:44:14;;;;;;;1.35;1.00;;;21.20;31.50;;;;;;6125686;29;20044;-52
2023/03/06 10:47:34;;;;;;;1.25;1.00;;;21.30;31.50;;;;;;6125477;29;20043;-53
2023/03/06 10:50:35;;;;;;;1.20;1.10;;;21.30;31.40;;;;;;6124566;29;20514;-50
2023/03/06 10:53:49;;;;;;;1.02;0.93;;;21.40;31.50;;;;;;6126040;29;20090;-52
2023/03/06 10:56:51;;;;;;;1.00;0.90;;;21.30;31.40;;;;;;6125308;28;20048;-54
2023/03/06 10:59:56;;;;;;;1.40;1.10;;;21.30;31.30;;;;;;6125326;29;20110;-51
2023/03/06 11:03:17;;;;;;;2.67;1.20;;;21.20;31.20;;;;;;6109036;29;20054;-51
2023/03/06 11:06:33;;;;;;;1.50;1.20;;;21.40;31.30;;;;;;6108952;29;20046;-54
2023/03/06 11:09:35;;;;;;;1.10;1.00;;;21.40;31.10;;;;;;6109123;29;20051;-51
2023/03/06 11:12:38;;;;;;;1.30;0.93;;;21.50;31.10;;;;;;6124658;29;20043;-50
2023/03/06 11:15:54;;;;;;;1.30;1.05;;;21.40;31.00;;;;;;6107791;29;20052;-48
2023/03/06 11:18:57;;;;;;;3.53;1.10;;;21.40;30.90;;;;;;6124943;29;20128;-52
2023/03/06 11:22:01;;;;;;;1.40;1.02;;;21.50;30.90;;;;;;6126988;29;20060;-52
2023/03/06 11:25:04;;;;;;;1.40;1.20;;;21.50;30.80;;;;;;6128649;29;20102;-52
2023/03/06 11:28:11;;;;;;;1.10;0.98;;;21.50;30.70;;;;;;6129180;29;20426;-50
2023/03/06 11:31:17;;;;;;;0.85;0.80;;;21.40;30.60;;;;;;6128602;29;20053;-52
2023/03/06 11:34:35;;;;;;;0.82;0.80;;;21.50;30.60;;;;;;6128456;29;20044;-53
2023/03/06 11:37:44;;;;;;;1.00;0.90;;;21.30;30.40;;;;;;6128820;29;20066;-53
2023/03/06 11:40:52;;;;;;;1.52;0.80;;;21.40;30.40;;;;;;6127398;29;20052;-53
2023/03/06 11:43:59;;;;;;;1.20;1.00;;;21.30;30.30;;;;;;6111726;29;20508;-53
2023/03/06 11:47:09;;;;;;;1.05;0.95;;;21.40;30.30;;;;;;6112375;29;20448;-50
2023/03/06 11:50:20;;;;;;;1.23;1.13;;;21.30;30.20;;;;;;6127094;29;20054;-52
2023/03/06 11:53:29;;;;;;;1.10;1.00;;;21.50;30.20;;;;;;6127237;29;20072;-50
2023/03/06 11:56:39;;;;;;;1.23;1.08;;;21.60;30.20;;;;;;6128005;29;20044;-52
2023/03/06 12:00:12;;;;;;;1.20;1.10;;;21.40;30.00;;;;;;6128233;29;20048;-52
2023/03/06 12:03:40;;;;;;;1.00;0.88;;;21.50;30.00;;;;;;6127990;29;20048;-51
2023/03/06 12:06:49;;;;;;;1.20;1.10;;;21.50;30.00;;;;;;6127987;29;20047;-52
2023/03/06 12:09:59;;;;;;;1.17;0.90;;;21.60;30.10;;;;;;6128060;29;20118;-52
2023/03/06 12:13:19;;;;;;;1.30;0.90;;;21.30;30.00;;;;;;6112011;29;20048;-52
2023/03/06 12:16:33;;;;;;;1.40;1.02;;;21.30;30.00;;;;;;6126823;29;20048;-53
2023/03/06 12:19:48;;;;;;;1.15;1.00;;;21.50;30.00;;;;;;6126479;29;20050;-50
2023/03/06 12:22:51;;;;;;;0.93;0.82;;;21.00;29.80;;;;;;6126507;29;20051;-52
2023/03/06 12:26:28;;;;;;;1.25;0.90;;;21.50;30.00;;;;;;6127082;29;20412;-52
2023/03/06 12:29:43;;;;;;;1.10;0.85;;;21.30;29.90;;;;;;6127648;29;20039;-53
2023/03/06 12:32:51;;;;;;;1.20;1.10;;;21.40;29.90;;;;;;6126708;29;20055;-52
2023/03/06 12:36:02;;;;;;;0.98;0.80;;;21.40;29.90;;;;;;6111029;29;20448;-56
2023/03/06 12:39:10;;;;;;;2.40;1.25;;;21.40;29.80;;;;;;6127120;29;20040;-56
2023/03/06 12:42:28;;;;;;;1.63;1.10;;;21.30;29.90;;;;;;6110658;29;20102;-52
2023/03/06 12:45:32;;;;;;;1.10;1.00;;;21.40;29.90;;;;;;6126933;29;20043;-50
2023/03/06 12:48:36;;;;;;;0.98;0.90;;;21.50;29.90;;;;;;6127054;29;20055;-46
2023/03/06 12:51:38;;;;;;;1.13;0.93;;;21.30;29.90;;;;;;6125992;29;20059;-45
2023/03/06 12:54:40;;;;;;;1.20;1.02;;;21.40;29.90;;;;;;6127031;29;20401;-48
2023/03/06 12:57:42;;;;;;;1.00;0.80;;;21.40;29.90;;;;;;6127864;29;20055;-51
2023/03/06 13:00:57;;;;;;;1.00;0.95;;;21.40;29.90;;;;;;6127843;29;20043;-50
2023/03/06 13:04:26;;;;;;;0.82;0.75;;;21.50;30.40;;;;;;6127345;29;20412;-52
2023/03/06 13:07:42;;;;;;;0.77;0.73;;;21.30;29.90;;;;;;6127893;29;20500;-48
2023/03/06 13:11:00;;;;;;;0.90;0.60;;;21.50;29.90;;;;;;6127209;29;20047;-51
2023/03/06 13:14:23;;;;;;;0.90;0.73;;;21.40;29.80;;;;;;6127587;29;20043;-53
2023/03/06 13:17:34;;;;;;;1.20;0.80;;;21.40;29.90;;;;;;6126986;29;20044;-48
2023/03/06 13:20:41;;;;;;;1.00;0.85;;;21.60;29.80;;;;;;6126954;29;20128;-45
2023/03/06 13:23:50;;;;;;;0.80;0.75;;;21.50;29.80;;;;;;6127361;29;20051;-47
2023/03/06 13:26:57;;;;;;;0.80;0.77;;;21.40;29.70;;;;;;6125496;29;20052;-47
2023/03/06 13:30:21;;;;;;;1.13;0.88;;;21.40;29.60;;;;;;6126640;29;20122;-49
2023/03/06 13:33:49;;;;;;;0.95;0.88;;;21.40;29.60;;;;;;6125105;29;20055;-47
2023/03/06 13:36:52;;;;;;;2.15;0.90;;;21.50;29.60;;;;;;6125908;29;20052;-49
2023/03/06 13:40:13;;;;;;;1.20;1.00;;;21.50;29.60;;;;;;6126613;29;20497;-49
2023/03/06 13:43:20;;;;;;;0.98;0.88;;;21.40;29.50;;;;;;6125537;29;20055;-49
2023/03/06 13:46:25;;;;;;;0.90;0.80;;;21.30;29.50;;;;;;6127033;29;20066;-48
2023/03/06 13:49:32;;;;;;;1.25;1.10;;;21.50;29.60;;;;;;6126428;29;20099;-47
2023/03/06 13:52:45;;;;;;;1.00;0.88;;;21.50;29.60;;;;;;6126605;29;20056;-46
2023/03/06 13:55:58;;;;;;;1.10;1.00;;;21.40;29.60;;;;;;6126207;29;20051;-48
2023/03/06 13:59:24;;;;;;;1.20;0.80;;;21.50;29.80;;;;;;6126063;29;20036;-46
2023/03/06 14:02:50;;;;;;;1.08;0.98;;;21.30;29.50;;;;;;6126512;29;20477;-50
2023/03/06 14:05:52;;;;;;;1.13;0.90;;;21.50;29.60;;;;;;6126800;29;20043;-47
2023/03/06 14:08:54;;;;;;;1.08;0.98;;;21.50;29.60;;;;;;6126222;28;20099;-48
2023/03/06 14:12:04;;;;;;;1.52;1.13;;;21.40;29.50;;;;;;6125743;29;20055;-50
2023/03/06 14:15:22;;;;;;;0.70;0.70;;;21.50;29.60;;;;;;6124978;29;20048;-49
2023/03/06 14:18:27;;;;;;;0.98;0.80;;;21.30;29.50;;;;;;6126220;29;20051;-50
2023/03/06 14:21:30;;;;;;;1.13;0.82;;;21.50;29.60;;;;;;6124906;29;20124;-48
2023/03/06 14:24:37;;;;;;;0.95;0.80;;;21.40;29.60;;;;;;6124753;29;20456;-47
2023/03/06 14:27:44;;;;;;;0.85;0.73;;;21.40;29.60;;;;;;6124324;29;20127;-49
2023/03/06 14:30:49;;;;;;;1.08;0.88;;;21.50;29.70;;;;;;6125695;29;20070;-47
2023/03/06 14:33:57;;;;;;;1.40;1.08;;;21.50;29.60;;;;;;6124246;29;20102;-47
2023/03/06 14:37:01;;;;;;;0.88;0.80;;;21.50;29.60;;;;;;6125772;29;20071;-50
2023/03/06 14:40:10;;;;;;;1.30;1.00;;;21.50;29.60;;;;;;6124337;29;20055;-47
2023/03/06 14:43:18;;;;;;;1.35;1.15;;;21.40;29.50;;;;;;6126178;29;20059;-47
2023/03/06 14:46:21;;;;;;;1.13;0.90;;;21.30;29.50;;;;;;6125707;29;20048;-46
2023/03/06 14:49:25;;;;;;;0.68;0.68;;;21.50;29.50;;;;;;6125488;29;20048;-48
2023/03/06 14:52:30;;;;;;;1.52;0.75;;;21.50;29.50;;;;;;6124237;29;20075;-44
2023/03/06 14:55:34;;;;;;;0.70;0.70;;;21.30;29.40;;;;;;6125600;29;20508;-48
2023/03/06 14:58:40;;;;;;;0.85;0.70;;;21.40;29.40;;;;;;6129121;29;20044;-47
2023/03/06 15:01:46;;;;;;;1.05;0.70;;;21.50;29.40;;;;;;6129408;29;20492;-47
2023/03/06 15:04:50;;;;;;;2.28;0.77;;;21.20;29.40;;;;;;6129294;29;20105;-51
2023/03/06 15:07:53;;;;;;;2.20;1.00;;;21.40;29.40;;;;;;6129252;29;20447;-47
2023/03/06 15:11:00;;;;;;;1.55;0.73;;;21.40;29.40;;;;;;6129318;29;20500;-49
2023/03/06 15:14:03;;;;;;;2.90;0.77;;;21.30;29.30;;;;;;6128155;29;20043;-52
2023/03/06 15:17:24;;;;;;;1.63;0.80;;;21.50;29.30;;;;;;6129100;29;20052;-51
2023/03/06 15:20:42;;;;;;;0.93;0.67;;;21.60;29.30;;;;;;6129375;29;20400;-51
2023/03/06 15:23:47;;;;;;;0.90;0.60;;;21.60;29.30;;;;;;6127912;29;20051;-53
2023/03/06 15:26:54;;;;;;;0.50;0.50;;;21.70;29.40;;;;;;6128891;29;20058;-50
2023/03/06 15:30:10;;;;;;;0.80;0.80;;;21.60;29.50;;;;;;6129370;29;20511;-50
2023/03/06 15:33:22;;;;;;;0.73;0.68;;;21.50;29.30;;;;;;6129052;29;20048;-52
2023/03/06 15:36:28;;;;;;;0.90;0.65;;;21.50;29.30;;;;;;6127814;29;20051;-47
2023/03/06 15:39:35;;;;;;;0.85;0.70;;;21.40;29.30;;;;;;6127343;29;20047;-51
2023/03/06 15:42:37;;;;;;;0.82;0.70;;;21.40;29.30;;;;;;6112210;29;20179;-48
2023/03/06 15:45:39;;;;;;;0.98;0.80;;;21.70;29.40;;;;;;6128865;29;20475;-46
2023/03/06 15:48:50;;;;;;;;;;;21.40;29.30;;;;;;6129042;29;20107;-50
2023/03/06 15:51:52;;;;;;;1.48;1.00;;;21.50;29.40;;;;;;6127376;29;19930;-48
2023/03/06 15:54:53;;;;;;;1.42;0.70;;;21.60;29.40;;;;;;6128509;29;20079;-52
2023/03/06 15:58:01;;;;;;;1.13;0.75;;;21.60;29.50;;;;;;6128905;29;20384;-51
2023/03/06 16:01:02;;;;;;;0.80;0.70;;;21.40;29.40;;;;;;6127748;29;20144;-51
2023/03/06 16:04:04;;;;;;;1.13;1.00;;;21.50;29.50;;;;;;6128352;29;20049;-50
2023/03/06 16:07:05;;;;;;;;;;;21.60;29.50;;;;;;6127878;29;20126;-55
2023/03/06 16:10:11;;;;;;;0.70;0.70;;;21.50;29.50;;;;;;6128349;29;20287;-52
2023/03/06 16:13:18;;;;;;;1.30;0.95;;;21.30;29.40;;;;;;6128548;29;20473;-50
2023/03/06 16:16:28;;;;;;;1.10;0.82;;;21.40;29.50;;;;;;6128236;29;20405;-53